Terminal Aerodrome Forecast
Issued by NWS

Home | Current Version | Previous Version | Text Only | Print | Product List | Glossary On
Versions: 1 2 3 4 5 6 7 8 9 10 11 12 13 14 15 16 17 18 19
000
FTUS41 KPBZ 181121
TAFFKL
TAF
KFKL 181121Z 1812/1912 21006KT 5SM BR VCSH BKN006 OVC015
     FM181400 21005KT P6SM VCSH SCT009 BKN015
     FM181600 24008G15KT P6SM BKN040
     FM181800 25010G19KT P6SM SCT040
     FM190300 25004KT P6SM OVC025
     FM190600 24004KT P6SM OVC015
      AMD LTD TO CLD VIS AND WIND=

USA.gov is the U.S. government's official web portal to all federal, state and local government web resources and services.